createdAt,value
2022-08-28T00:02:58.634Z,7.47
2022-08-28T00:05:29.299Z,8.32
2022-08-28T00:07:57.935Z,8.10
2022-08-28T00:10:26.919Z,7.50
2022-08-28T00:12:57.537Z,8.10
2022-08-28T00:15:32.424Z,7.70
2022-08-28T00:18:00.920Z,7.55
2022-08-28T00:20:29.296Z,8.15
2022-08-28T00:22:57.608Z,7.55
2022-08-28T00:25:27.375Z,7.28
2022-08-28T00:27:57.575Z,8.13
2022-08-28T00:30:26.010Z,7.28
2022-08-28T00:32:55.951Z,7.63
2022-08-28T00:35:24.557Z,6.72
2022-08-28T00:37:55.018Z,7.07
2022-08-28T00:40:28.751Z,6.93
2022-08-28T00:43:04.985Z,7.88
2022-08-28T00:45:39.281Z,8.00
2022-08-28T00:48:08.303Z,7.10
2022-08-28T00:51:00.494Z,7.70
2022-08-28T00:53:33.047Z,7.72
2022-08-28T00:56:08.633Z,7.43
2022-08-28T00:58:43.786Z,7.55
2022-08-28T01:01:13.171Z,7.20
2022-08-28T01:03:43.537Z,7.55
2022-08-28T01:06:14.902Z,7.70
2022-08-28T01:08:46.293Z,7.43
2022-08-28T01:11:19.705Z,7.20
2022-08-28T01:13:48.734Z,7.95
2022-08-28T01:16:19.285Z,7.47
2022-08-28T01:18:48.379Z,8.20
2022-08-28T01:21:22.049Z,8.45
2022-08-28T01:24:02.109Z,8.18
2022-08-28T01:26:29.892Z,7.72
2022-08-28T01:29:01.763Z,8.07
2022-08-28T01:31:31.700Z,8.57
2022-08-28T01:33:59.508Z,7.88
2022-08-28T01:36:29.154Z,8.45
2022-08-28T01:39:02.824Z,8.55
2022-08-28T01:41:30.928Z,8.48
2022-08-28T01:43:59.308Z,8.23
2022-08-28T01:46:27.294Z,9.10
2022-08-28T01:48:55.024Z,8.88
2022-08-28T01:51:24.597Z,9.93
2022-08-28T01:53:52.824Z,9.13
2022-08-28T01:56:20.909Z,8.10
2022-08-28T01:58:48.706Z,8.70
2022-08-28T02:01:21.329Z,9.20
2022-08-28T02:03:49.881Z,8.65
2022-08-28T02:06:17.976Z,9.10
2022-08-28T02:08:46.835Z,8.30
2022-08-28T02:13:43.069Z,8.38
2022-08-28T02:16:11.480Z,8.43
2022-08-28T02:18:39.619Z,9.07
2022-08-28T02:21:08.481Z,8.27
2022-08-28T02:23:38.243Z,9.27
2022-08-28T02:26:06.743Z,8.48
2022-08-28T02:28:34.893Z,9.18
2022-08-28T02:31:02.689Z,9.27
2022-08-28T02:33:30.206Z,8.52
2022-08-28T02:35:57.782Z,8.73
2022-08-28T02:38:25.354Z,8.30
2022-08-28T02:40:52.919Z,8.82
2022-08-28T02:43:20.412Z,8.65
2022-08-28T02:45:49.408Z,9.18
2022-08-28T02:48:17.624Z,7.60
2022-08-28T02:50:46.596Z,8.00
2022-08-28T02:53:14.268Z,8.07
2022-08-28T02:55:41.762Z,8.02
2022-08-28T02:58:09.926Z,8.18
2022-08-28T03:00:37.728Z,8.15
2022-08-28T03:03:05.435Z,7.88
2022-08-28T03:05:33.242Z,7.73
2022-08-28T03:08:01.073Z,7.78
2022-08-28T03:10:28.701Z,7.85
2022-08-28T03:12:56.175Z,8.10
2022-08-28T03:15:23.935Z,7.53
2022-08-28T03:17:51.528Z,7.78
2022-08-28T03:20:19.244Z,7.68
2022-08-28T03:23:05.637Z,7.90
2022-08-28T03:25:33.277Z,8.13
2022-08-28T03:28:01.673Z,8.88
2022-08-28T03:30:29.515Z,8.20
2022-08-28T03:32:57.024Z,7.63
2022-08-28T03:35:24.683Z,7.68
2022-08-28T03:37:52.815Z,8.35
2022-08-28T03:40:20.571Z,8.20
2022-08-28T03:42:53.033Z,8.18
2022-08-28T03:45:22.086Z,8.07
2022-08-28T03:47:50.851Z,8.43
2022-08-28T03:50:19.768Z,7.82
2022-08-28T03:52:47.697Z,8.13
2022-08-28T03:55:16.787Z,8.90
2022-08-28T03:57:44.551Z,8.30
2022-08-28T04:00:13.358Z,8.73
2022-08-28T04:02:42.822Z,9.10
2022-08-28T04:05:11.297Z,7.97
2022-08-28T04:07:40.169Z,9.73
2022-08-28T04:12:36.994Z,9.93
2022-08-28T04:15:06.963Z,9.50
2022-08-28T04:17:37.985Z,8.82
2022-08-28T04:20:07.167Z,9.40
2022-08-28T04:22:35.485Z,8.93
2022-08-28T04:25:04.198Z,9.65
2022-08-28T04:27:32.033Z,9.35
2022-08-28T04:29:59.579Z,9.15
2022-08-28T04:32:27.176Z,9.95
2022-08-28T04:34:54.750Z,9.23
2022-08-28T04:37:22.946Z,8.93
2022-08-28T04:39:55.697Z,9.10
2022-08-28T04:42:23.477Z,9.13
2022-08-28T04:44:51.160Z,9.35
2022-08-28T04:47:18.635Z,9.77
2022-08-28T04:49:46.136Z,8.60
2022-08-28T04:52:13.662Z,9.25
2022-08-28T04:54:41.375Z,9.43
2022-08-28T04:57:08.938Z,9.07
2022-08-28T04:59:37.111Z,9.65
2022-08-28T05:02:05.723Z,9.55
2022-08-28T05:04:33.207Z,9.73
2022-08-28T05:07:00.845Z,9.80
2022-08-28T05:09:28.724Z,11.03
2022-08-28T05:11:56.567Z,9.23
2022-08-28T05:14:24.282Z,9.50
2022-08-28T05:16:53.091Z,9.98
2022-08-28T05:19:21.621Z,9.77
2022-08-28T05:21:49.133Z,9.80
2022-08-28T05:24:17.309Z,10.10
2022-08-28T05:26:48.293Z,9.63
2022-08-28T05:29:17.693Z,9.82
2022-08-28T05:31:46.382Z,8.75
2022-08-28T05:36:43.069Z,9.50
2022-08-28T05:39:11.880Z,9.60
2022-08-28T05:41:41.907Z,9.48
2022-08-28T05:44:11.757Z,9.07
2022-08-28T05:46:42.643Z,10.02
2022-08-28T05:49:10.679Z,9.55
2022-08-28T05:51:41.272Z,9.40
2022-08-28T05:54:09.744Z,9.02
2022-08-28T05:56:39.461Z,9.00
2022-08-28T05:59:07.696Z,9.13
2022-08-28T06:01:41.293Z,9.60
2022-08-28T06:04:19.104Z,9.15
2022-08-28T06:06:46.922Z,9.50
2022-08-28T06:09:20.159Z,9.33
2022-08-28T06:11:49.723Z,9.60
2022-08-28T06:14:20.636Z,9.50
2022-08-28T06:16:53.052Z,9.35
2022-08-28T06:19:23.116Z,9.60
2022-08-28T06:21:53.941Z,9.75
2022-08-28T06:24:21.619Z,9.18
2022-08-28T06:26:49.434Z,9.23
2022-08-28T06:29:21.022Z,9.35
2022-08-28T06:31:55.250Z,9.13
2022-08-28T06:34:23.089Z,9.02
2022-08-28T06:36:54.032Z,9.20
2022-08-28T06:39:22.517Z,8.80
2022-08-28T06:41:50.455Z,9.15
2022-08-28T06:44:20.247Z,8.75
2022-08-28T06:46:50.121Z,9.05
2022-08-28T06:49:17.939Z,9.20
2022-08-28T06:51:45.673Z,8.23
2022-08-28T06:54:17.268Z,8.90
2022-08-28T06:56:49.232Z,8.65
2022-08-28T06:59:16.831Z,8.77
2022-08-28T07:01:44.723Z,8.27
2022-08-28T07:04:14.574Z,8.50
2022-08-28T07:06:47.091Z,8.63
2022-08-28T07:09:16.105Z,8.80
2022-08-28T07:11:46.862Z,9.27
2022-08-28T07:14:14.345Z,8.73
2022-08-28T07:16:42.201Z,8.63
2022-08-28T07:19:12.041Z,8.65
2022-08-28T07:21:42.536Z,8.65
2022-08-28T07:24:12.417Z,8.48
2022-08-28T07:26:41.836Z,8.15
2022-08-28T07:29:11.456Z,8.38
2022-08-28T07:31:44.998Z,8.35
2022-08-28T07:34:14.010Z,8.32
2022-08-28T07:36:42.690Z,8.93
2022-08-28T07:39:12.907Z,8.25
2022-08-28T07:41:42.797Z,8.95
2022-08-28T07:44:32.020Z,7.97
2022-08-28T07:47:04.123Z,7.93
2022-08-28T07:49:33.875Z,8.23
2022-08-28T07:52:02.301Z,7.50
2022-08-28T07:54:30.014Z,7.63
2022-08-28T07:56:57.845Z,8.23
2022-08-28T07:59:25.465Z,8.13
2022-08-28T08:01:53.864Z,7.70
2022-08-28T08:04:23.695Z,7.78
2022-08-28T08:06:58.095Z,8.75
2022-08-28T08:09:27.140Z,8.80
2022-08-28T08:11:55.154Z,8.32
2022-08-28T08:14:23.500Z,9.10
2022-08-28T08:16:52.556Z,8.30
2022-08-28T08:19:20.611Z,8.77
2022-08-28T08:21:54.870Z,8.55
2022-08-28T08:24:28.494Z,8.38
2022-08-28T08:27:01.149Z,8.75
2022-08-28T08:29:35.892Z,8.77
2022-08-28T08:32:09.979Z,8.98
2022-08-28T08:34:40.511Z,8.60
2022-08-28T08:37:08.569Z,8.85
2022-08-28T08:39:37.699Z,9.23
2022-08-28T08:42:17.662Z,9.13
2022-08-28T08:44:48.413Z,9.70
2022-08-28T08:47:22.595Z,9.27
2022-08-28T08:50:01.206Z,9.90
2022-08-28T08:55:21.124Z,8.90
2022-08-28T08:57:53.582Z,11.35
2022-08-28T09:00:21.235Z,10.63
2022-08-28T09:03:09.881Z,10.87
2022-08-28T09:06:02.115Z,11.27
2022-08-28T09:09:00.479Z,11.90
2022-08-28T09:11:34.318Z,10.95
2022-08-28T09:14:26.537Z,10.68
2022-08-28T09:16:58.362Z,10.38
2022-08-28T09:19:26.481Z,10.05
2022-08-28T09:21:54.471Z,10.20
2022-08-28T09:24:30.617Z,10.15
2022-08-28T09:27:23.865Z,10.20
2022-08-28T09:30:07.600Z,10.38
2022-08-28T09:32:44.416Z,9.90
2022-08-28T09:35:30.011Z,10.43
2022-08-28T09:38:20.717Z,9.23
2022-08-28T09:41:07.122Z,10.50
2022-08-28T09:43:38.007Z,10.43
2022-08-28T09:46:22.486Z,9.93
2022-08-28T09:48:52.542Z,10.43
2022-08-28T09:51:22.844Z,9.80
2022-08-28T09:53:56.577Z,10.70
2022-08-28T09:56:36.479Z,9.45
2022-08-28T09:59:16.296Z,9.45
2022-08-28T10:01:48.880Z,9.57
2022-08-28T10:04:58.938Z,9.52
2022-08-28T10:07:29.505Z,10.30
2022-08-28T10:10:17.080Z,10.43
2022-08-28T10:15:49.606Z,9.75
2022-08-28T10:18:32.231Z,9.82
2022-08-28T10:21:30.566Z,10.02
2022-08-28T10:24:13.515Z,9.88
2022-08-28T10:27:08.776Z,9.70
2022-08-28T10:30:12.495Z,10.38
2022-08-28T10:32:55.321Z,10.15
2022-08-28T10:35:48.871Z,9.85
2022-08-28T10:38:32.457Z,11.02
2022-08-28T10:41:10.355Z,10.02
2022-08-28T10:43:51.609Z,11.13
2022-08-28T10:46:37.554Z,10.40
2022-08-28T10:49:27.103Z,10.35
2022-08-28T10:51:59.660Z,10.20
2022-08-28T10:55:03.446Z,10.50
2022-08-28T10:57:41.639Z,10.30
2022-08-28T11:00:19.380Z,10.40
2022-08-28T11:02:54.479Z,9.82
2022-08-28T11:05:24.817Z,10.23
2022-08-28T11:07:59.680Z,9.73
2022-08-28T11:10:30.238Z,9.20
2022-08-28T11:12:58.751Z,9.68
2022-08-28T11:18:25.334Z,9.48
2022-08-28T11:21:11.109Z,8.38
2022-08-28T11:23:47.802Z,9.15
2022-08-28T11:26:30.293Z,9.20
2022-08-28T11:29:00.911Z,9.10
2022-08-28T11:31:32.635Z,9.63
2022-08-28T11:34:02.550Z,9.10
2022-08-28T11:36:30.065Z,9.65
2022-08-28T11:38:58.248Z,10.07
2022-08-28T11:41:50.683Z,9.45
2022-08-28T11:44:25.615Z,9.88
2022-08-28T11:46:56.815Z,8.77
2022-08-28T11:49:31.953Z,9.75
2022-08-28T11:52:17.791Z,10.05
2022-08-28T11:54:54.384Z,10.05
2022-08-28T11:57:40.882Z,10.13
2022-08-28T12:00:32.961Z,10.20
2022-08-28T12:03:06.792Z,10.63
2022-08-28T12:05:39.984Z,10.30
2022-08-28T12:08:09.774Z,9.98
2022-08-28T12:10:37.223Z,9.52
2022-08-28T12:13:07.560Z,9.70
2022-08-28T12:15:35.015Z,9.98
2022-08-28T12:18:14.954Z,10.13
2022-08-28T12:20:51.522Z,9.82
2022-08-28T12:23:31.732Z,10.70
2022-08-28T12:26:04.251Z,10.85
2022-08-28T12:28:45.695Z,10.80
2022-08-28T12:31:59.195Z,10.30
2022-08-28T12:34:42.147Z,10.10
2022-08-28T12:37:50.981Z,9.13
2022-08-28T12:40:26.395Z,9.20
2022-08-28T12:43:00.340Z,8.73
2022-08-28T12:46:00.333Z,9.20
2022-08-28T12:48:31.715Z,8.63
2022-08-28T12:51:04.217Z,9.23
2022-08-28T12:53:42.050Z,8.20
2022-08-28T12:56:14.532Z,8.50
2022-08-28T12:58:43.887Z,8.80
2022-08-28T13:01:37.548Z,8.65
2022-08-28T13:04:25.545Z,8.90
2022-08-28T13:07:00.375Z,8.20
2022-08-28T13:09:29.253Z,8.60
2022-08-28T13:11:57.057Z,7.97
2022-08-28T13:14:43.916Z,7.85
2022-08-28T13:17:13.709Z,7.97
2022-08-28T13:19:41.597Z,8.20
2022-08-28T13:22:33.852Z,7.82
2022-08-28T13:25:05.387Z,7.18
2022-08-28T13:27:33.227Z,6.28
2022-08-28T13:30:20.879Z,7.13
2022-08-28T13:33:02.501Z,7.25
2022-08-28T13:35:39.114Z,7.45
2022-08-28T13:38:10.367Z,7.63
2022-08-28T13:41:03.101Z,8.15
2022-08-28T13:43:44.567Z,8.55
2022-08-28T13:46:12.396Z,8.50
2022-08-28T13:48:40.880Z,8.80
2022-08-28T13:51:12.008Z,8.50
2022-08-28T13:53:44.292Z,8.63
2022-08-28T13:56:12.522Z,9.32
2022-08-28T13:58:40.259Z,9.30
2022-08-28T14:01:08.086Z,9.63
2022-08-28T14:03:35.799Z,9.07
2022-08-28T14:06:05.064Z,9.40
2022-08-28T14:08:32.985Z,9.05
2022-08-28T14:11:01.771Z,10.18
2022-08-28T14:13:29.543Z,10.50
2022-08-28T14:15:58.065Z,9.98
2022-08-28T14:20:53.959Z,10.25
2022-08-28T14:23:21.681Z,9.43
2022-08-28T14:25:51.043Z,10.07
2022-08-28T14:28:18.839Z,10.43
2022-08-28T14:30:50.275Z,9.35
2022-08-28T14:33:20.598Z,10.05
2022-08-28T14:35:49.281Z,9.57
2022-08-28T14:38:17.402Z,9.77
2022-08-28T14:40:45.420Z,9.88
2022-08-28T14:43:14.430Z,8.82
2022-08-28T14:45:49.371Z,8.75
2022-08-28T14:48:18.841Z,10.60
2022-08-28T14:50:50.066Z,10.80
2022-08-28T14:53:18.114Z,9.60
2022-08-28T14:55:49.192Z,9.25
2022-08-28T14:58:19.213Z,9.02
2022-08-28T15:00:50.505Z,9.40
2022-08-28T15:03:19.709Z,9.70
2022-08-28T15:05:47.935Z,10.20
2022-08-28T15:08:17.511Z,9.48
2022-08-28T15:10:45.277Z,8.70
2022-08-28T15:13:13.410Z,9.33
2022-08-28T15:15:43.354Z,9.18
2022-08-28T15:18:11.948Z,9.00
2022-08-28T15:20:42.312Z,8.07
2022-08-28T15:23:11.539Z,8.30
2022-08-28T15:25:39.541Z,8.38
2022-08-28T15:28:08.398Z,8.80
2022-08-28T15:30:36.972Z,8.95
2022-08-28T15:33:05.293Z,8.52
2022-08-28T15:35:34.527Z,8.10
2022-08-28T15:38:02.720Z,7.90
2022-08-28T15:40:49.459Z,9.00
2022-08-28T15:43:17.427Z,8.15
2022-08-28T15:45:46.226Z,8.20
2022-08-28T15:48:14.021Z,8.30
2022-08-28T15:50:42.045Z,8.83
2022-08-28T15:55:37.906Z,8.52
2022-08-28T16:00:41.091Z,8.80
2022-08-28T16:03:08.864Z,8.60
2022-08-28T16:05:39.613Z,9.00
2022-08-28T16:08:10.045Z,9.52
2022-08-28T16:10:38.066Z,11.13
2022-08-28T16:13:06.765Z,11.45
2022-08-28T16:15:34.837Z,10.00
2022-08-28T16:18:02.414Z,9.82
2022-08-28T16:20:29.946Z,9.70
2022-08-28T16:22:57.469Z,10.32
2022-08-28T16:25:24.979Z,10.43
2022-08-28T16:27:52.542Z,10.98
2022-08-28T16:32:52.350Z,9.57
2022-08-28T16:35:22.130Z,9.63
2022-08-28T16:37:50.439Z,10.70
2022-08-28T16:40:18.455Z,10.40
2022-08-28T16:42:51.570Z,10.27
2022-08-28T16:45:20.405Z,10.25
2022-08-28T16:52:44.458Z,10.63
2022-08-28T16:55:13.282Z,10.80
2022-08-28T16:57:41.285Z,10.32
2022-08-28T17:00:13.533Z,10.18
2022-08-28T17:02:42.488Z,10.15
2022-08-28T17:05:13.088Z,16.00
2022-08-28T17:07:41.127Z,14.73
2022-08-28T17:10:10.697Z,11.95
2022-08-28T17:12:39.365Z,13.52
2022-08-28T17:15:08.726Z,13.43
2022-08-28T17:17:40.051Z,13.20
2022-08-28T17:20:29.363Z,12.15
2022-08-28T17:22:57.186Z,13.57
2022-08-28T17:25:25.933Z,13.43
2022-08-28T17:27:53.770Z,11.30
2022-08-28T17:30:21.929Z,12.13
2022-08-28T17:32:50.057Z,15.20
2022-08-28T17:35:18.152Z,15.80
2022-08-28T17:37:45.976Z,16.13
2022-08-28T17:40:16.782Z,14.73
2022-08-28T17:42:48.025Z,14.20
2022-08-28T17:45:15.945Z,14.40
2022-08-28T17:47:43.614Z,14.40
2022-08-28T17:50:11.926Z,18.77
2022-08-28T17:52:43.112Z,25.17
2022-08-28T17:55:10.876Z,18.27
2022-08-28T17:57:38.732Z,12.57
2022-08-28T18:00:09.266Z,13.17
2022-08-28T18:02:37.052Z,12.35
2022-08-28T18:05:05.724Z,13.10
2022-08-28T18:07:33.992Z,11.85
2022-08-28T18:10:01.915Z,11.98
2022-08-28T18:12:30.343Z,12.10
2022-08-28T18:14:58.084Z,11.90
2022-08-28T18:17:25.733Z,11.60
2022-08-28T18:19:54.208Z,11.68
2022-08-28T18:22:23.661Z,11.67
2022-08-28T18:24:54.493Z,11.23
2022-08-28T18:27:22.818Z,11.18
2022-08-28T18:29:50.657Z,13.52
2022-08-28T18:32:19.202Z,14.40
2022-08-28T18:34:46.958Z,13.52
2022-08-28T18:37:14.753Z,12.60
2022-08-28T18:39:43.228Z,12.90
2022-08-28T18:42:11.939Z,12.25
2022-08-28T18:44:39.693Z,12.60
2022-08-28T18:47:07.464Z,11.57
2022-08-28T18:49:35.215Z,11.77
2022-08-28T18:52:03.386Z,12.90
2022-08-28T18:54:31.399Z,12.20
2022-08-28T18:57:03.921Z,12.48
2022-08-28T18:59:33.391Z,12.68
2022-08-28T19:02:01.711Z,13.35
2022-08-28T19:04:29.516Z,12.73
2022-08-28T19:06:57.391Z,13.07
2022-08-28T19:09:32.102Z,12.40
2022-08-28T19:12:01.043Z,13.27
2022-08-28T19:14:28.892Z,12.60
2022-08-28T19:16:56.838Z,13.30
2022-08-28T19:19:24.839Z,13.20
2022-08-28T19:21:52.560Z,13.57
2022-08-28T19:24:22.621Z,14.50
2022-08-28T19:26:50.254Z,13.50
2022-08-28T19:29:18.152Z,13.63
2022-08-28T19:31:46.562Z,13.95
2022-08-28T19:34:14.439Z,13.65
2022-08-28T19:36:42.453Z,13.95
2022-08-28T19:39:10.314Z,13.60
2022-08-28T19:41:38.910Z,12.85
2022-08-28T19:44:07.596Z,13.93
2022-08-28T19:54:00.876Z,13.52
2022-08-28T19:56:30.399Z,13.45
2022-08-28T19:59:01.476Z,13.73
2022-08-28T20:01:32.829Z,13.90
2022-08-28T20:04:00.715Z,13.57
2022-08-28T20:06:31.617Z,13.43
2022-08-28T20:09:01.305Z,12.90
2022-08-28T20:11:30.428Z,13.60
2022-08-28T20:14:04.439Z,14.30
2022-08-28T20:16:37.000Z,13.48
2022-08-28T20:19:07.848Z,13.30
2022-08-28T20:21:38.323Z,13.30
2022-08-28T20:24:10.315Z,14.80
2022-08-28T20:26:38.157Z,14.38
2022-08-28T20:29:07.880Z,13.67
2022-08-28T20:31:40.548Z,13.27
2022-08-28T20:34:09.830Z,13.57
2022-08-28T20:36:37.783Z,12.48
2022-08-28T20:39:07.411Z,13.05
2022-08-28T20:41:37.257Z,13.23
2022-08-28T20:44:07.730Z,12.63
2022-08-28T20:46:40.685Z,12.60
2022-08-28T20:49:11.242Z,12.32
2022-08-28T20:51:53.153Z,12.27
2022-08-28T20:54:24.465Z,12.70
2022-08-28T20:56:53.593Z,12.32
2022-08-28T20:59:21.891Z,11.55
2022-08-28T21:01:51.477Z,12.10
2022-08-28T21:04:19.885Z,11.90
2022-08-28T21:06:47.677Z,11.70
2022-08-28T21:09:16.433Z,11.60
2022-08-28T21:14:11.949Z,11.82
2022-08-28T21:16:40.539Z,11.73
2022-08-28T21:21:45.378Z,11.88
2022-08-28T21:24:15.441Z,11.32
2022-08-28T21:26:48.644Z,11.18
2022-08-28T21:29:20.023Z,10.77
2022-08-28T21:31:50.160Z,11.02
2022-08-28T21:34:19.500Z,10.52
2022-08-28T21:36:50.565Z,11.02
2022-08-28T21:39:20.720Z,11.13
2022-08-28T21:41:49.451Z,10.88
2022-08-28T21:46:45.666Z,10.85
2022-08-28T21:49:13.215Z,10.40
2022-08-28T21:51:40.856Z,10.50
2022-08-28T21:54:08.669Z,10.93
2022-08-28T21:56:36.229Z,9.33
2022-08-28T21:59:04.087Z,9.80
2022-08-28T22:01:32.133Z,9.80
2022-08-28T22:03:59.787Z,10.05
2022-08-28T22:06:27.347Z,8.65
2022-08-28T22:08:55.987Z,8.88
2022-08-28T22:11:25.419Z,8.68
2022-08-28T22:13:56.896Z,9.13
2022-08-28T22:16:25.671Z,9.15
2022-08-28T22:18:53.815Z,8.60
2022-08-28T22:21:43.775Z,8.23
2022-08-28T22:24:13.341Z,8.32
2022-08-28T22:26:42.533Z,8.57
2022-08-28T22:29:11.541Z,8.48
2022-08-28T22:31:43.898Z,8.52
2022-08-28T22:34:13.818Z,8.40
2022-08-28T22:36:41.405Z,8.20
2022-08-28T22:39:09.362Z,8.20
2022-08-28T22:41:37.644Z,8.80
2022-08-28T22:44:05.499Z,8.35
2022-08-28T22:46:33.252Z,8.80
2022-08-28T22:49:00.924Z,8.13
2022-08-28T22:51:28.430Z,8.43
2022-08-28T22:53:56.436Z,7.72
2022-08-28T22:56:23.991Z,8.88
2022-08-28T22:58:51.459Z,7.70
2022-08-28T23:01:22.302Z,7.88
2022-08-28T23:03:50.232Z,8.40
2022-08-28T23:06:18.568Z,8.20
2022-08-28T23:08:46.096Z,8.07
2022-08-28T23:11:13.800Z,9.07
2022-08-28T23:13:41.448Z,8.50
2022-08-28T23:16:09.012Z,8.52
2022-08-28T23:19:06.014Z,8.77
2022-08-28T23:21:26.444Z,8.73
2022-08-28T23:23:55.137Z,8.75
2022-08-28T23:26:23.102Z,8.95
2022-08-28T23:28:51.145Z,8.80
2022-08-28T23:31:18.861Z,8.13
2022-08-28T23:33:47.048Z,8.93
2022-08-28T23:36:15.391Z,9.02
2022-08-28T23:38:45.054Z,8.70
2022-08-28T23:41:13.318Z,8.32
2022-08-28T23:43:40.948Z,8.52
2022-08-28T23:46:13.546Z,8.70
2022-08-28T23:48:41.411Z,8.88
2022-08-28T23:51:10.139Z,8.13
2022-08-28T23:53:40.936Z,8.10
2022-08-28T23:56:09.582Z,7.90
2022-08-28T23:58:37.331Z,8.23
